Ballymahon, Ireland
Current Conditions -  °F | °C
As of 11:30 AM on Friday 24 Oct 2014 (Local Time) from EIKN Reporting Station
Broken Clouds Broken Clouds  
Wind Chill: 43°   Ceiling: 4000
Heat Index: 48°   Visibility: 6mi
Dew Point: 45°   Wind: 12mph
Humidity: 87%   Direction: 210°SSW
Pressure: 29.8"   Gusts: NA
Location:  53.56°N, 7.77°W
Report Text: EIKN 241130Z 21010KT 180V240 9999 FEW014 BKN040 BKN100 09/07 Q1009 NOSIG
Loading
Personal Weather Stations






























Interactive Weather Map New forecast layout! Learn more

10-Day Weather Forecast

Advertisements
Track Severe Weather on mobile